sensor_id;sensor_type;location;lat;lon;timestamp;pressure;altitude;pressure_sealevel;temperature;humidity
49122;BME280;35529;44.342;25.944;2022-11-10T00:02:04;101424.09;;;6.95;100.00
49122;BME280;35529;44.342;25.944;2022-11-10T00:04:30;101431.47;;;6.92;100.00
49122;BME280;35529;44.342;25.944;2022-11-10T00:06:56;101420.91;;;6.92;100.00
49122;BME280;35529;44.342;25.944;2022-11-10T00:09:23;101427.53;;;6.96;100.00
49122;BME280;35529;44.342;25.944;2022-11-10T00:11:49;101420.00;;;7.01;100.00
49122;BME280;35529;44.342;25.944;2022-11-10T00:14:15;101427.78;;;7.02;100.00
49122;BME280;35529;44.342;25.944;2022-11-10T00:17:07;101425.81;;;7.04;100.00
49122;BME280;35529;44.342;25.944;2022-11-10T00:19:33;101426.81;;;7.03;100.00
49122;BME280;35529;44.342;25.944;2022-11-10T00:22:01;101424.69;;;7.07;100.00
49122;BME280;35529;44.342;25.944;2022-11-10T00:24:27;101422.56;;;6.93;100.00
49122;BME280;35529;44.342;25.944;2022-11-10T00:26:54;101419.88;;;6.75;100.00
49122;BME280;35529;44.342;25.944;2022-11-10T00:29:20;101424.38;;;6.64;100.00
49122;BME280;35529;44.342;25.944;2022-11-10T00:31:47;101410.44;;;6.54;100.00
49122;BME280;35529;44.342;25.944;2022-11-10T00:34:14;101413.34;;;6.51;100.00
49122;BME280;35529;44.342;25.944;2022-11-10T00:36:40;101405.66;;;6.58;100.00
49122;BME280;35529;44.342;25.944;2022-11-10T00:39:07;101410.22;;;6.65;100.00
49122;BME280;35529;44.342;25.944;2022-11-10T00:41:33;101405.91;;;6.64;100.00
49122;BME280;35529;44.342;25.944;2022-11-10T00:43:59;101407.72;;;6.64;100.00
49122;BME280;35529;44.342;25.944;2022-11-10T00:46:25;101403.03;;;6.58;100.00
49122;BME280;35529;44.342;25.944;2022-11-10T00:48:51;101407.69;;;6.46;100.00
49122;BME280;35529;44.342;25.944;2022-11-10T00:51:21;101405.31;;;6.43;100.00
49122;BME280;35529;44.342;25.944;2022-11-10T00:53:47;101400.91;;;6.43;100.00
49122;BME280;35529;44.342;25.944;2022-11-10T00:56:14;101399.38;;;6.41;100.00
49122;BME280;35529;44.342;25.944;2022-11-10T00:58:40;101396.44;;;6.44;100.00
49122;BME280;35529;44.342;25.944;2022-11-10T01:01:06;101397.25;;;6.44;100.00
49122;BME280;35529;44.342;25.944;2022-11-10T01:03:33;101398.16;;;6.35;100.00
49122;BME280;35529;44.342;25.944;2022-11-10T01:06:13;101404.16;;;6.27;100.00
49122;BME280;35529;44.342;25.944;2022-11-10T01:08:39;101392.34;;;6.31;100.00
49122;BME280;35529;44.342;25.944;2022-11-10T01:11:07;101398.16;;;6.35;100.00
49122;BME280;35529;44.342;25.944;2022-11-10T01:13:34;101385.34;;;6.40;100.00
49122;BME280;35529;44.342;25.944;2022-11-10T01:16:04;101388.69;;;6.42;100.00
49122;BME280;35529;44.342;25.944;2022-11-10T01:18:30;101386.44;;;6.47;100.00
49122;BME280;35529;44.342;25.944;2022-11-10T01:20:56;101383.66;;;6.49;100.00
49122;BME280;35529;44.342;25.944;2022-11-10T01:23:22;101378.22;;;6.50;100.00
49122;BME280;35529;44.342;25.944;2022-11-10T01:25:48;101387.66;;;6.53;100.00
49122;BME280;35529;44.342;25.944;2022-11-10T01:28:14;101380.44;;;6.55;100.00
49122;BME280;35529;44.342;25.944;2022-11-10T01:30:40;101376.63;;;6.58;100.00
49122;BME280;35529;44.342;25.944;2022-11-10T01:33:07;101385.00;;;6.53;100.00
49122;BME280;35529;44.342;25.944;2022-11-10T01:35:33;101377.41;;;6.50;100.00
49122;BME280;35529;44.342;25.944;2022-11-10T01:37:59;101376.47;;;6.41;100.00
49122;BME280;35529;44.342;25.944;2022-11-10T01:40:25;101372.16;;;6.40;100.00
49122;BME280;35529;44.342;25.944;2022-11-10T01:42:55;101371.63;;;6.36;100.00
49122;BME280;35529;44.342;25.944;2022-11-10T01:47:49;101374.13;;;6.38;100.00
49122;BME280;35529;44.342;25.944;2022-11-10T01:50:16;101373.00;;;6.41;100.00
49122;BME280;35529;44.342;25.944;2022-11-10T01:52:46;101381.44;;;6.44;100.00
49122;BME280;35529;44.342;25.944;2022-11-10T01:55:13;101391.03;;;6.45;100.00
49122;BME280;35529;44.342;25.944;2022-11-10T01:57:39;101382.84;;;6.38;100.00
49122;BME280;35529;44.342;25.944;2022-11-10T02:00:07;101387.47;;;6.36;100.00
49122;BME280;35529;44.342;25.944;2022-11-10T02:02:35;101389.59;;;6.23;100.00
49122;BME280;35529;44.342;25.944;2022-11-10T02:05:02;101388.41;;;6.08;100.00
49122;BME280;35529;44.342;25.944;2022-11-10T02:07:29;101390.78;;;6.01;100.00
49122;BME280;35529;44.342;25.944;2022-11-10T02:09:56;101395.66;;;5.86;100.00
49122;BME280;35529;44.342;25.944;2022-11-10T02:12:24;101396.38;;;5.68;100.00
49122;BME280;35529;44.342;25.944;2022-11-10T02:15:03;101397.22;;;5.59;100.00
49122;BME280;35529;44.342;25.944;2022-11-10T02:17:29;101395.56;;;5.58;100.00
49122;BME280;35529;44.342;25.944;2022-11-10T02:20:04;101389.31;;;5.69;100.00
49122;BME280;35529;44.342;25.944;2022-11-10T02:22:31;101393.19;;;5.75;100.00
49122;BME280;35529;44.342;25.944;2022-11-10T02:24:57;101394.56;;;5.79;100.00
49122;BME280;35529;44.342;25.944;2022-11-10T02:27:23;101405.22;;;5.87;100.00
49122;BME280;35529;44.342;25.944;2022-11-10T02:29:52;101397.72;;;5.82;100.00
49122;BME280;35529;44.342;25.944;2022-11-10T02:32:20;101396.25;;;5.70;100.00
49122;BME280;35529;44.342;25.944;2022-11-10T02:34:46;101395.44;;;5.69;100.00
49122;BME280;35529;44.342;25.944;2022-11-10T02:37:14;101388.75;;;5.75;100.00
49122;BME280;35529;44.342;25.944;2022-11-10T02:39:40;101395.13;;;5.73;100.00
49122;BME280;35529;44.342;25.944;2022-11-10T02:42:07;101409.56;;;5.68;100.00
49122;BME280;35529;44.342;25.944;2022-11-10T02:44:36;101405.41;;;5.66;100.00
49122;BME280;35529;44.342;25.944;2022-11-10T02:47:02;101411.63;;;5.65;100.00
49122;BME280;35529;44.342;25.944;2022-11-10T02:49:28;101403.06;;;5.63;100.00
49122;BME280;35529;44.342;25.944;2022-11-10T02:51:54;101399.69;;;5.70;100.00
49122;BME280;35529;44.342;25.944;2022-11-10T02:54:21;101401.81;;;5.67;100.00
49122;BME280;35529;44.342;25.944;2022-11-10T02:56:47;101411.38;;;5.48;100.00
49122;BME280;35529;44.342;25.944;2022-11-10T02:59:13;101398.50;;;5.35;100.00
49122;BME280;35529;44.342;25.944;2022-11-10T03:01:39;101411.81;;;5.34;100.00
49122;BME280;35529;44.342;25.944;2022-11-10T03:04:05;101407.25;;;5.36;100.00
49122;BME280;35529;44.342;25.944;2022-11-10T03:06:31;101410.28;;;5.41;100.00
49122;BME280;35529;44.342;25.944;2022-11-10T03:08:57;101406.94;;;5.49;100.00
49122;BME280;35529;44.342;25.944;2022-11-10T03:11:24;101415.41;;;5.52;100.00
49122;BME280;35529;44.342;25.944;2022-11-10T03:13:53;101409.88;;;5.46;100.00
49122;BME280;35529;44.342;25.944;2022-11-10T03:16:19;101409.16;;;5.44;100.00
49122;BME280;35529;44.342;25.944;2022-11-10T03:18:45;101411.94;;;5.42;100.00
49122;BME280;35529;44.342;25.944;2022-11-10T03:21:11;101403.88;;;5.44;100.00
49122;BME280;35529;44.342;25.944;2022-11-10T03:23:37;101405.97;;;5.50;100.00
49122;BME280;35529;44.342;25.944;2022-11-10T03:26:04;101407.50;;;5.52;100.00
49122;BME280;35529;44.342;25.944;2022-11-10T03:28:30;101405.97;;;5.50;100.00
49122;BME280;35529;44.342;25.944;2022-11-10T03:30:56;101416.53;;;5.40;100.00
49122;BME280;35529;44.342;25.944;2022-11-10T03:33:22;101418.88;;;5.33;100.00
49122;BME280;35529;44.342;25.944;2022-11-10T03:35:48;101419.28;;;5.29;100.00
49122;BME280;35529;44.342;25.944;2022-11-10T03:41:18;101406.13;;;5.19;100.00
49122;BME280;35529;44.342;25.944;2022-11-10T03:46:35;101403.88;;;5.14;100.00
49122;BME280;35529;44.342;25.944;2022-11-10T03:49:03;101412.22;;;5.10;100.00
49122;BME280;35529;44.342;25.944;2022-11-10T03:51:29;101406.94;;;5.10;100.00
49122;BME280;35529;44.342;25.944;2022-11-10T03:53:55;101413.88;;;5.11;100.00
49122;BME280;35529;44.342;25.944;2022-11-10T03:56:21;101411.66;;;5.06;100.00
49122;BME280;35529;44.342;25.944;2022-11-10T03:58:47;101415.13;;;5.07;100.00
49122;BME280;35529;44.342;25.944;2022-11-10T04:01:13;101416.22;;;5.04;100.00
49122;BME280;35529;44.342;25.944;2022-11-10T04:03:39;101416.09;;;5.06;100.00
49122;BME280;35529;44.342;25.944;2022-11-10T04:06:05;101420.13;;;5.10;100.00
49122;BME280;35529;44.342;25.944;2022-11-10T04:08:50;101421.94;;;5.19;100.00
49122;BME280;35529;44.342;25.944;2022-11-10T04:11:28;101415.28;;;5.25;100.00
49122;BME280;35529;44.342;25.944;2022-11-10T04:14:14;101408.06;;;5.27;100.00
49122;BME280;35529;44.342;25.944;2022-11-10T04:16:59;101418.31;;;5.30;100.00
49122;BME280;35529;44.342;25.944;2022-11-10T04:19:25;101420.28;;;5.28;100.00
49122;BME280;35529;44.342;25.944;2022-11-10T04:21:51;101422.06;;;5.27;100.00
49122;BME280;35529;44.342;25.944;2022-11-10T04:24:17;101422.19;;;5.26;100.00
49122;BME280;35529;44.342;25.944;2022-11-10T04:26:43;101422.06;;;5.17;100.00
49122;BME280;35529;44.342;25.944;2022-11-10T04:29:10;101421.22;;;5.17;100.00
49122;BME280;35529;44.342;25.944;2022-11-10T04:31:37;101416.38;;;5.12;100.00
49122;BME280;35529;44.342;25.944;2022-11-10T04:34:04;101418.19;;;5.12;100.00
49122;BME280;35529;44.342;25.944;2022-11-10T04:36:31;101417.91;;;5.15;100.00
49122;BME280;35529;44.342;25.944;2022-11-10T04:38:58;101424.56;;;5.09;100.00
49122;BME280;35529;44.342;25.944;2022-11-10T04:41:27;101433.28;;;5.00;100.00
49122;BME280;35529;44.342;25.944;2022-11-10T04:43:53;101426.44;;;4.87;100.00
49122;BME280;35529;44.342;25.944;2022-11-10T04:46:20;101430.19;;;4.85;100.00
49122;BME280;35529;44.342;25.944;2022-11-10T04:48:47;101422.00;;;4.78;100.00
49122;BME280;35529;44.342;25.944;2022-11-10T04:51:14;101424.59;;;4.59;100.00
49122;BME280;35529;44.342;25.944;2022-11-10T04:53:41;101429.91;;;4.47;100.00
49122;BME280;35529;44.342;25.944;2022-11-10T04:56:08;101429.50;;;4.42;100.00
49122;BME280;35529;44.342;25.944;2022-11-10T04:58:36;101430.16;;;4.34;100.00
49122;BME280;35529;44.342;25.944;2022-11-10T05:01:03;101433.38;;;4.38;100.00
49122;BME280;35529;44.342;25.944;2022-11-10T05:03:29;101437.28;;;4.44;100.00
49122;BME280;35529;44.342;25.944;2022-11-10T05:05:55;101427.44;;;4.46;100.00
49122;BME280;35529;44.342;25.944;2022-11-10T05:08:21;101439.34;;;4.50;100.00
49122;BME280;35529;44.342;25.944;2022-11-10T05:10:47;101433.56;;;4.56;100.00
49122;BME280;35529;44.342;25.944;2022-11-10T05:13:13;101434.38;;;4.57;100.00
49122;BME280;35529;44.342;25.944;2022-11-10T05:15:39;101426.78;;;4.63;100.00
49122;BME280;35529;44.342;25.944;2022-11-10T05:18:06;101438.03;;;4.75;100.00
49122;BME280;35529;44.342;25.944;2022-11-10T05:20:33;101428.53;;;4.84;100.00
49122;BME280;35529;44.342;25.944;2022-11-10T05:22:59;101440.88;;;4.93;100.00
49122;BME280;35529;44.342;25.944;2022-11-10T05:25:43;101440.47;;;5.08;100.00
49122;BME280;35529;44.342;25.944;2022-11-10T05:28:10;101447.28;;;5.20;100.00
49122;BME280;35529;44.342;25.944;2022-11-10T05:30:36;101440.06;;;5.22;100.00
49122;BME280;35529;44.342;25.944;2022-11-10T05:33:03;101451.16;;;5.16;100.00
49122;BME280;35529;44.342;25.944;2022-11-10T05:35:29;101457.78;;;5.00;100.00
49122;BME280;35529;44.342;25.944;2022-11-10T05:37:56;101449.28;;;4.77;100.00
49122;BME280;35529;44.342;25.944;2022-11-10T05:40:22;101461.88;;;4.83;100.00
49122;BME280;35529;44.342;25.944;2022-11-10T05:42:49;101462.88;;;4.82;100.00
49122;BME280;35529;44.342;25.944;2022-11-10T05:45:19;101464.13;;;4.78;100.00
49122;BME280;35529;44.342;25.944;2022-11-10T05:47:46;101468.78;;;4.75;100.00
49122;BME280;35529;44.342;25.944;2022-11-10T05:50:12;101474.44;;;4.70;100.00
49122;BME280;35529;44.342;25.944;2022-11-10T05:52:41;101477.50;;;4.65;100.00
49122;BME280;35529;44.342;25.944;2022-11-10T05:55:07;101474.44;;;4.70;100.00
49122;BME280;35529;44.342;25.944;2022-11-10T05:57:33;101474.22;;;4.83;100.00
49122;BME280;35529;44.342;25.944;2022-11-10T06:00:01;101485.19;;;4.98;100.00
49122;BME280;35529;44.342;25.944;2022-11-10T06:02:27;101492.84;;;5.11;100.00
49122;BME280;35529;44.342;25.944;2022-11-10T06:04:54;101490.94;;;5.23;100.00
49122;BME280;35529;44.342;25.944;2022-11-10T06:07:21;101491.66;;;5.34;100.00
49122;BME280;35529;44.342;25.944;2022-11-10T06:09:47;101495.81;;;5.47;100.00
49122;BME280;35529;44.342;25.944;2022-11-10T06:12:14;101492.91;;;5.60;100.00
49122;BME280;35529;44.342;25.944;2022-11-10T06:14:40;101501.06;;;5.66;100.00
49122;BME280;35529;44.342;25.944;2022-11-10T06:17:07;101506.78;;;5.81;100.00
49122;BME280;35529;44.342;25.944;2022-11-10T06:19:33;101508.16;;;5.95;100.00
49122;BME280;35529;44.342;25.944;2022-11-10T06:21:59;101511.66;;;6.06;100.00
49122;BME280;35529;44.342;25.944;2022-11-10T06:24:26;101511.19;;;6.20;100.00
49122;BME280;35529;44.342;25.944;2022-11-10T06:26:52;101510.75;;;6.34;100.00
49122;BME280;35529;44.342;25.944;2022-11-10T06:29:18;101513.06;;;6.47;100.00
49122;BME280;35529;44.342;25.944;2022-11-10T06:31:44;101511.63;;;6.63;100.00
49122;BME280;35529;44.342;25.944;2022-11-10T06:34:10;101520.91;;;6.67;100.00
49122;BME280;35529;44.342;25.944;2022-11-10T06:36:36;101520.50;;;6.71;100.00
49122;BME280;35529;44.342;25.944;2022-11-10T06:39:03;101532.81;;;6.81;100.00
49122;BME280;35529;44.342;25.944;2022-11-10T06:41:31;101529.88;;;6.84;100.00
49122;BME280;35529;44.342;25.944;2022-11-10T06:43:58;101534.34;;;6.83;100.00
49122;BME280;35529;44.342;25.944;2022-11-10T06:46:24;101534.03;;;6.86;100.00
49122;BME280;35529;44.342;25.944;2022-11-10T06:48:52;101536.78;;;6.95;100.00
49122;BME280;35529;44.342;25.944;2022-11-10T06:51:18;101545.78;;;7.02;100.00
49122;BME280;35529;44.342;25.944;2022-11-10T06:53:44;101547.66;;;7.10;100.00
49122;BME280;35529;44.342;25.944;2022-11-10T06:56:10;101539.03;;;7.17;100.00
49122;BME280;35529;44.342;25.944;2022-11-10T06:58:36;101534.94;;;7.23;100.00
49122;BME280;35529;44.342;25.944;2022-11-10T07:01:02;101539.34;;;7.32;100.00
49122;BME280;35529;44.342;25.944;2022-11-10T07:03:28;101540.44;;;7.40;100.00
49122;BME280;35529;44.342;25.944;2022-11-10T07:05:54;101537.00;;;7.47;100.00
49122;BME280;35529;44.342;25.944;2022-11-10T07:08:20;101530.00;;;7.56;100.00
49122;BME280;35529;44.342;25.944;2022-11-10T07:10:53;101535.38;;;7.64;100.00
49122;BME280;35529;44.342;25.944;2022-11-10T07:13:21;101529.88;;;7.76;100.00
49122;BME280;35529;44.342;25.944;2022-11-10T07:15:49;101527.03;;;7.95;100.00
49122;BME280;35529;44.342;25.944;2022-11-10T07:18:16;101529.84;;;8.12;100.00
49122;BME280;35529;44.342;25.944;2022-11-10T07:20:42;101528.28;;;8.27;100.00
49122;BME280;35529;44.342;25.944;2022-11-10T07:23:08;101530.34;;;8.42;100.00
49122;BME280;35529;44.342;25.944;2022-11-10T07:25:35;101532.47;;;8.56;100.00
49122;BME280;35529;44.342;25.944;2022-11-10T07:28:03;101521.25;;;8.70;100.00
49122;BME280;35529;44.342;25.944;2022-11-10T07:30:29;101531.44;;;8.83;100.00
49122;BME280;35529;44.342;25.944;2022-11-10T07:33:00;101529.84;;;8.99;100.00
49122;BME280;35529;44.342;25.944;2022-11-10T07:35:27;101533.84;;;9.11;100.00
49122;BME280;35529;44.342;25.944;2022-11-10T07:37:56;101535.22;;;9.23;100.00
49122;BME280;35529;44.342;25.944;2022-11-10T07:40:23;101541.41;;;9.41;100.00
49122;BME280;35529;44.342;25.944;2022-11-10T07:42:49;101541.06;;;9.52;100.00
49122;BME280;35529;44.342;25.944;2022-11-10T07:45:15;101541.06;;;9.60;100.00
49122;BME280;35529;44.342;25.944;2022-11-10T07:47:43;101528.69;;;9.69;100.00
49122;BME280;35529;44.342;25.944;2022-11-10T07:50:09;101531.84;;;9.81;100.00
49122;BME280;35529;44.342;25.944;2022-11-10T07:52:35;101532.66;;;9.98;100.00
49122;BME280;35529;44.342;25.944;2022-11-10T07:55:01;101529.66;;;10.09;100.00
49122;BME280;35529;44.342;25.944;2022-11-10T07:57:29;101531.78;;;10.22;100.00
49122;BME280;35529;44.342;25.944;2022-11-10T07:59:55;101533.13;;;10.34;100.00
49122;BME280;35529;44.342;25.944;2022-11-10T08:02:21;101531.28;;;10.43;100.00
49122;BME280;35529;44.342;25.944;2022-11-10T08:04:47;101533.13;;;10.51;100.00
49122;BME280;35529;44.342;25.944;2022-11-10T08:07:13;101535.56;;;10.61;100.00
49122;BME280;35529;44.342;25.944;2022-11-10T08:09:39;101529.59;;;10.67;100.00
49122;BME280;35529;44.342;25.944;2022-11-10T08:12:05;101538.03;;;10.70;100.00
49122;BME280;35529;44.342;25.944;2022-11-10T08:14:34;101532.88;;;10.77;100.00
49122;BME280;35529;44.342;25.944;2022-11-10T08:17:00;101535.16;;;10.88;100.00
49122;BME280;35529;44.342;25.944;2022-11-10T08:19:26;101540.91;;;11.00;100.00
49122;BME280;35529;44.342;25.944;2022-11-10T08:21:52;101534.38;;;11.11;100.00
49122;BME280;35529;44.342;25.944;2022-11-10T08:24:18;101535.81;;;11.22;100.00
49122;BME280;35529;44.342;25.944;2022-11-10T08:26:44;101543.41;;;11.33;100.00
49122;BME280;35529;44.342;25.944;2022-11-10T08:29:11;101532.91;;;11.40;100.00
49122;BME280;35529;44.342;25.944;2022-11-10T08:31:37;101535.50;;;11.48;100.00
49122;BME280;35529;44.342;25.944;2022-11-10T08:34:03;101535.28;;;11.58;100.00
49122;BME280;35529;44.342;25.944;2022-11-10T08:36:29;101539.53;;;11.67;100.00
49122;BME280;35529;44.342;25.944;2022-11-10T08:38:55;101532.16;;;11.78;100.00
49122;BME280;35529;44.342;25.944;2022-11-10T08:41:21;101532.06;;;11.86;100.00
49122;BME280;35529;44.342;25.944;2022-11-10T08:43:47;101536.34;;;11.95;100.00
49122;BME280;35529;44.342;25.944;2022-11-10T08:46:13;101532.63;;;12.04;100.00
49122;BME280;35529;44.342;25.944;2022-11-10T08:48:41;101537.22;;;12.11;100.00
49122;BME280;35529;44.342;25.944;2022-11-10T08:51:07;101527.78;;;12.23;100.00
49122;BME280;35529;44.342;25.944;2022-11-10T08:53:33;101529.19;;;12.34;100.00
49122;BME280;35529;44.342;25.944;2022-11-10T08:55:59;101532.75;;;12.41;100.00
49122;BME280;35529;44.342;25.944;2022-11-10T08:58:25;101526.16;;;12.52;100.00
49122;BME280;35529;44.342;25.944;2022-11-10T09:00:52;101531.03;;;12.63;100.00
49122;BME280;35529;44.342;25.944;2022-11-10T09:03:19;101529.28;;;12.70;100.00
49122;BME280;35529;44.342;25.944;2022-11-10T09:05:45;101517.88;;;12.77;100.00
49122;BME280;35529;44.342;25.944;2022-11-10T09:08:12;101536.44;;;12.85;100.00
49122;BME280;35529;44.342;25.944;2022-11-10T09:10:39;101531.28;;;12.98;100.00
49122;BME280;35529;44.342;25.944;2022-11-10T09:13:06;101531.56;;;13.03;100.00
49122;BME280;35529;44.342;25.944;2022-11-10T09:15:32;101529.38;;;13.14;100.00
49122;BME280;35529;44.342;25.944;2022-11-10T09:18:00;101534.25;;;13.25;100.00
49122;BME280;35529;44.342;25.944;2022-11-10T09:20:28;101537.28;;;13.37;100.00
49122;BME280;35529;44.342;25.944;2022-11-10T09:23:34;101531.84;;;13.45;100.00
49122;BME280;35529;44.342;25.944;2022-11-10T09:25:54;101536.84;;;13.55;100.00
49122;BME280;35529;44.342;25.944;2022-11-10T09:28:21;101531.38;;;13.63;100.00
49122;BME280;35529;44.342;25.944;2022-11-10T09:30:48;101541.03;;;13.64;100.00
49122;BME280;35529;44.342;25.944;2022-11-10T09:33:15;101539.25;;;13.71;100.00
49122;BME280;35529;44.342;25.944;2022-11-10T09:35:41;101531.31;;;13.78;100.00
49122;BME280;35529;44.342;25.944;2022-11-10T09:38:08;101537.91;;;13.82;100.00
49122;BME280;35529;44.342;25.944;2022-11-10T09:40:42;101531.38;;;13.85;100.00
49122;BME280;35529;44.342;25.944;2022-11-10T09:43:11;101531.25;;;13.93;100.00
49122;BME280;35529;44.342;25.944;2022-11-10T09:45:41;101536.19;;;13.96;100.00
49122;BME280;35529;44.342;25.944;2022-11-10T09:50:50;101523.34;;;14.06;100.00
49122;BME280;35529;44.342;25.944;2022-11-10T09:53:22;101526.88;;;14.14;100.00
49122;BME280;35529;44.342;25.944;2022-11-10T09:55:54;101523.06;;;14.23;100.00
49122;BME280;35529;44.342;25.944;2022-11-10T09:58:24;101517.94;;;14.28;100.00
49122;BME280;35529;44.342;25.944;2022-11-10T10:00:56;101524.16;;;14.35;100.00
49122;BME280;35529;44.342;25.944;2022-11-10T10:03:25;101513.91;;;14.39;100.00
49122;BME280;35529;44.342;25.944;2022-11-10T10:21:23;101512.75;;;14.90;100.00
49122;BME280;35529;44.342;25.944;2022-11-10T10:23:54;101506.22;;;14.99;100.00
49122;BME280;35529;44.342;25.944;2022-11-10T10:26:25;101507.88;;;15.07;100.00
49122;BME280;35529;44.342;25.944;2022-11-10T10:28:52;101508.94;;;15.13;100.00
49122;BME280;35529;44.342;25.944;2022-11-10T10:31:21;101506.66;;;15.23;100.00
49122;BME280;35529;44.342;25.944;2022-11-10T10:33:49;101507.09;;;15.27;100.00
49122;BME280;35529;44.342;25.944;2022-11-10T10:36:20;101507.72;;;15.29;100.00
49122;BME280;35529;44.342;25.944;2022-11-10T10:38:49;101497.25;;;15.34;100.00
49122;BME280;35529;44.342;25.944;2022-11-10T10:41:21;101499.31;;;15.38;100.00
49122;BME280;35529;44.342;25.944;2022-11-10T10:43:49;101500.75;;;15.48;100.00
49122;BME280;35529;44.342;25.944;2022-11-10T10:46:16;101500.13;;;15.52;100.00
49122;BME280;35529;44.342;25.944;2022-11-10T10:48:44;101484.50;;;15.56;100.00
49122;BME280;35529;44.342;25.944;2022-11-10T10:51:25;101487.59;;;15.59;100.00
49122;BME280;35529;44.342;25.944;2022-11-10T10:53:52;101485.94;;;15.65;100.00
49122;BME280;35529;44.342;25.944;2022-11-10T10:56:19;101494.41;;;15.69;100.00
49122;BME280;35529;44.342;25.944;2022-11-10T10:58:51;101492.97;;;15.73;100.00
49122;BME280;35529;44.342;25.944;2022-11-10T11:01:20;101488.44;;;15.80;100.00
49122;BME280;35529;44.342;25.944;2022-11-10T11:03:49;101481.44;;;15.86;100.00
49122;BME280;35529;44.342;25.944;2022-11-10T11:08:56;101474.25;;;15.93;100.00
49122;BME280;35529;44.342;25.944;2022-11-10T11:13:51;101470.91;;;16.04;100.00
49122;BME280;35529;44.342;25.944;2022-11-10T11:16:18;101476.69;;;16.08;100.00
49122;BME280;35529;44.342;25.944;2022-11-10T11:18:44;101465.97;;;16.15;100.00
49122;BME280;35529;44.342;25.944;2022-11-10T11:21:20;101468.00;;;16.19;100.00
49122;BME280;35529;44.342;25.944;2022-11-10T11:34:15;101461.19;;;16.30;100.00
49122;BME280;35529;44.342;25.944;2022-11-10T11:37:02;101460.16;;;16.31;100.00
49122;BME280;35529;44.342;25.944;2022-11-10T11:43:00;101458.69;;;16.35;100.00
49122;BME280;35529;44.342;25.944;2022-11-10T11:45:49;101461.78;;;16.39;100.00
49122;BME280;35529;44.342;25.944;2022-11-10T11:51:10;101466.69;;;16.49;100.00
49122;BME280;35529;44.342;25.944;2022-11-10T11:56:27;101461.50;;;16.54;100.00
49122;BME280;35529;44.342;25.944;2022-11-10T12:17:01;101460.03;;;16.65;100.00
49122;BME280;35529;44.342;25.944;2022-11-10T12:19:37;101460.00;;;16.71;100.00
49122;BME280;35529;44.342;25.944;2022-11-10T12:25:28;101459.13;;;16.91;100.00
49122;BME280;35529;44.342;25.944;2022-11-10T12:27:49;101457.47;;;16.90;100.00
49122;BME280;35529;44.342;25.944;2022-11-10T12:30:18;101462.63;;;16.91;100.00
49122;BME280;35529;44.342;25.944;2022-11-10T12:32:52;101460.78;;;16.85;100.00
49122;BME280;35529;44.342;25.944;2022-11-10T12:35:31;101459.34;;;16.83;100.00
49122;BME280;35529;44.342;25.944;2022-11-10T12:38:00;101462.03;;;16.83;100.00
49122;BME280;35529;44.342;25.944;2022-11-10T12:40:39;101456.22;;;16.86;100.00
49122;BME280;35529;44.342;25.944;2022-11-10T12:43:12;101450.84;;;16.86;100.00
49122;BME280;35529;44.342;25.944;2022-11-10T12:45:47;101463.47;;;16.85;100.00
49122;BME280;35529;44.342;25.944;2022-11-10T12:48:16;101456.03;;;16.81;100.00
49122;BME280;35529;44.342;25.944;2022-11-10T12:50:52;101457.28;;;16.78;100.00
49122;BME280;35529;44.342;25.944;2022-11-10T12:53:23;101461.66;;;16.72;100.00
49122;BME280;35529;44.342;25.944;2022-11-10T12:58:20;101463.34;;;16.67;100.00
49122;BME280;35529;44.342;25.944;2022-11-10T13:01:04;101460.88;;;16.65;100.00
49122;BME280;35529;44.342;25.944;2022-11-10T13:03:32;101459.44;;;16.63;100.00
49122;BME280;35529;44.342;25.944;2022-11-10T13:08:45;101459.22;;;16.64;100.00
49122;BME280;35529;44.342;25.944;2022-11-10T13:13:51;101459.22;;;16.64;100.00
49122;BME280;35529;44.342;25.944;2022-11-10T13:24:27;101467.47;;;16.63;100.00
49122;BME280;35529;44.342;25.944;2022-11-10T13:29:27;101466.44;;;16.64;100.00
49122;BME280;35529;44.342;25.944;2022-11-10T13:31:55;101463.56;;;16.65;100.00
49122;BME280;35529;44.342;25.944;2022-11-10T13:36:48;101469.31;;;16.62;100.00
49122;BME280;35529;44.342;25.944;2022-11-10T13:39:24;101465.81;;;16.62;100.00
49122;BME280;35529;44.342;25.944;2022-11-10T13:41:53;101468.94;;;16.58;100.00
49122;BME280;35529;44.342;25.944;2022-11-10T13:44:32;101473.09;;;16.54;100.00
49122;BME280;35529;44.342;25.944;2022-11-10T13:55:45;101479.72;;;16.38;100.00
49122;BME280;35529;44.342;25.944;2022-11-10T13:58:01;101473.75;;;16.36;100.00
49122;BME280;35529;44.342;25.944;2022-11-10T14:00:29;101476.22;;;16.31;100.00
49122;BME280;35529;44.342;25.944;2022-11-10T14:02:57;101479.53;;;16.27;100.00
49122;BME280;35529;44.342;25.944;2022-11-10T14:08:17;101469.66;;;16.14;100.00
49122;BME280;35529;44.342;25.944;2022-11-10T14:10:55;101471.75;;;16.05;100.00
49122;BME280;35529;44.342;25.944;2022-11-10T14:13:33;101479.16;;;15.96;100.00
49122;BME280;35529;44.342;25.944;2022-11-10T14:16:00;101482.06;;;15.88;100.00
49122;BME280;35529;44.342;25.944;2022-11-10T14:18:34;101487.59;;;15.80;100.00
49122;BME280;35529;44.342;25.944;2022-11-10T14:21:01;101488.84;;;15.70;100.00
49122;BME280;35529;44.342;25.944;2022-11-10T14:23:30;101486.59;;;15.61;100.00
49122;BME280;35529;44.342;25.944;2022-11-10T14:25:59;101485.94;;;15.52;100.00